sensor_id;sensor_type;location;lat;lon;timestamp;temperature;humidity
17483;DHT22;8858;52.308;20.994;2023-09-12T00:01:04;20.70;99.90
17483;DHT22;8858;52.308;20.994;2023-09-12T00:03:33;20.70;99.90
17483;DHT22;8858;52.308;20.994;2023-09-12T00:06:02;20.60;99.90
17483;DHT22;8858;52.308;20.994;2023-09-12T00:08:31;20.60;99.90
17483;DHT22;8858;52.308;20.994;2023-09-12T00:11:01;20.60;99.90
17483;DHT22;8858;52.308;20.994;2023-09-12T00:13:31;20.60;99.90
17483;DHT22;8858;52.308;20.994;2023-09-12T00:16:00;20.50;99.90
17483;DHT22;8858;52.308;20.994;2023-09-12T00:18:29;20.50;99.90
17483;DHT22;8858;52.308;20.994;2023-09-12T00:20:57;20.50;99.90
17483;DHT22;8858;52.308;20.994;2023-09-12T00:23:28;20.50;99.90
17483;DHT22;8858;52.308;20.994;2023-09-12T00:25:57;20.40;99.90
17483;DHT22;8858;52.308;20.994;2023-09-12T00:28:25;20.40;99.90
17483;DHT22;8858;52.308;20.994;2023-09-12T00:30:56;20.40;99.90
17483;DHT22;8858;52.308;20.994;2023-09-12T00:33:26;20.40;99.90
17483;DHT22;8858;52.308;20.994;2023-09-12T00:35:56;20.30;99.90
17483;DHT22;8858;52.308;20.994;2023-09-12T00:38:24;20.30;99.90
17483;DHT22;8858;52.308;20.994;2023-09-12T00:40:52;20.30;99.90
17483;DHT22;8858;52.308;20.994;2023-09-12T00:43:21;20.30;99.90
17483;DHT22;8858;52.308;20.994;2023-09-12T00:45:49;20.20;99.90
17483;DHT22;8858;52.308;20.994;2023-09-12T00:48:20;20.30;99.90
17483;DHT22;8858;52.308;20.994;2023-09-12T00:50:51;20.20;99.90
17483;DHT22;8858;52.308;20.994;2023-09-12T00:53:21;20.20;99.90
17483;DHT22;8858;52.308;20.994;2023-09-12T00:55:57;20.20;99.90
17483;DHT22;8858;52.308;20.994;2023-09-12T00:58:28;20.10;99.90
17483;DHT22;8858;52.308;20.994;2023-09-12T01:00:56;20.10;99.90
17483;DHT22;8858;52.308;20.994;2023-09-12T01:03:27;20.10;99.90
17483;DHT22;8858;52.308;20.994;2023-09-12T01:05:59;20.10;99.90
17483;DHT22;8858;52.308;20.994;2023-09-12T01:08:28;20.00;99.90
17483;DHT22;8858;52.308;20.994;2023-09-12T01:10:58;20.00;99.90
17483;DHT22;8858;52.308;20.994;2023-09-12T01:13:27;19.90;99.90
17483;DHT22;8858;52.308;20.994;2023-09-12T01:15:56;19.90;99.90
17483;DHT22;8858;52.308;20.994;2023-09-12T01:18:28;19.80;99.90
17483;DHT22;8858;52.308;20.994;2023-09-12T01:21:12;19.80;99.90
17483;DHT22;8858;52.308;20.994;2023-09-12T01:23:52;19.80;99.90
17483;DHT22;8858;52.308;20.994;2023-09-12T01:26:41;19.70;99.90
17483;DHT22;8858;52.308;20.994;2023-09-12T01:29:18;19.70;99.90
17483;DHT22;8858;52.308;20.994;2023-09-12T01:31:47;19.60;99.90
17483;DHT22;8858;52.308;20.994;2023-09-12T01:34:17;19.60;99.90
17483;DHT22;8858;52.308;20.994;2023-09-12T01:36:45;19.50;99.90
17483;DHT22;8858;52.308;20.994;2023-09-12T01:39:14;19.50;99.90
17483;DHT22;8858;52.308;20.994;2023-09-12T01:41:46;19.50;99.90
17483;DHT22;8858;52.308;20.994;2023-09-12T01:44:17;19.40;99.90
17483;DHT22;8858;52.308;20.994;2023-09-12T01:46:47;19.40;99.90
17483;DHT22;8858;52.308;20.994;2023-09-12T01:49:19;19.40;99.90
17483;DHT22;8858;52.308;20.994;2023-09-12T01:51:51;19.40;99.90
17483;DHT22;8858;52.308;20.994;2023-09-12T01:54:24;19.40;99.90
17483;DHT22;8858;52.308;20.994;2023-09-12T01:56:54;19.40;99.90
17483;DHT22;8858;52.308;20.994;2023-09-12T01:59:28;19.40;99.90
17483;DHT22;8858;52.308;20.994;2023-09-12T02:01:57;19.30;99.90
17483;DHT22;8858;52.308;20.994;2023-09-12T02:04:29;19.30;99.90
17483;DHT22;8858;52.308;20.994;2023-09-12T02:06:57;19.30;99.90
17483;DHT22;8858;52.308;20.994;2023-09-12T02:09:26;19.30;99.90
17483;DHT22;8858;52.308;20.994;2023-09-12T02:11:58;19.20;99.90
17483;DHT22;8858;52.308;20.994;2023-09-12T02:14:54;19.20;99.90
17483;DHT22;8858;52.308;20.994;2023-09-12T02:17:22;19.10;99.90
17483;DHT22;8858;52.308;20.994;2023-09-12T02:19:55;19.10;99.90
17483;DHT22;8858;52.308;20.994;2023-09-12T02:22:23;19.10;99.90
17483;DHT22;8858;52.308;20.994;2023-09-12T02:24:52;19.00;99.90
17483;DHT22;8858;52.308;20.994;2023-09-12T02:27:22;19.00;99.90
17483;DHT22;8858;52.308;20.994;2023-09-12T02:29:54;19.00;99.90
17483;DHT22;8858;52.308;20.994;2023-09-12T02:32:24;19.00;99.90
17483;DHT22;8858;52.308;20.994;2023-09-12T02:34:52;19.00;99.90
17483;DHT22;8858;52.308;20.994;2023-09-12T02:37:24;19.00;99.90
17483;DHT22;8858;52.308;20.994;2023-09-12T02:39:53;19.00;99.90
17483;DHT22;8858;52.308;20.994;2023-09-12T02:42:22;19.00;99.90
17483;DHT22;8858;52.308;20.994;2023-09-12T02:44:51;18.90;99.90
17483;DHT22;8858;52.308;20.994;2023-09-12T02:47:22;18.90;99.90
17483;DHT22;8858;52.308;20.994;2023-09-12T02:49:51;18.90;99.90
17483;DHT22;8858;52.308;20.994;2023-09-12T02:52:19;18.90;99.90
17483;DHT22;8858;52.308;20.994;2023-09-12T02:54:48;18.90;99.90
17483;DHT22;8858;52.308;20.994;2023-09-12T02:57:16;18.90;99.90
17483;DHT22;8858;52.308;20.994;2023-09-12T02:59:45;18.80;99.90
17483;DHT22;8858;52.308;20.994;2023-09-12T03:02:14;18.80;99.90
17483;DHT22;8858;52.308;20.994;2023-09-12T03:04:48;18.80;99.90
17483;DHT22;8858;52.308;20.994;2023-09-12T03:07:17;18.80;99.90
17483;DHT22;8858;52.308;20.994;2023-09-12T03:09:48;18.80;99.90
17483;DHT22;8858;52.308;20.994;2023-09-12T03:12:16;18.80;99.90
17483;DHT22;8858;52.308;20.994;2023-09-12T03:14:45;18.80;99.90
17483;DHT22;8858;52.308;20.994;2023-09-12T03:17:14;18.80;99.90
17483;DHT22;8858;52.308;20.994;2023-09-12T03:19:42;18.80;99.90
17483;DHT22;8858;52.308;20.994;2023-09-12T03:22:16;18.80;99.90
17483;DHT22;8858;52.308;20.994;2023-09-12T03:24:44;18.80;99.90
17483;DHT22;8858;52.308;20.994;2023-09-12T03:27:13;18.80;99.90
17483;DHT22;8858;52.308;20.994;2023-09-12T03:29:46;18.80;99.90
17483;DHT22;8858;52.308;20.994;2023-09-12T03:32:15;18.70;99.90
17483;DHT22;8858;52.308;20.994;2023-09-12T03:34:44;18.70;99.90
17483;DHT22;8858;52.308;20.994;2023-09-12T03:37:13;18.70;99.90
17483;DHT22;8858;52.308;20.994;2023-09-12T03:39:44;18.70;99.90
17483;DHT22;8858;52.308;20.994;2023-09-12T03:42:13;18.70;99.90
17483;DHT22;8858;52.308;20.994;2023-09-12T03:44:41;18.70;99.90
17483;DHT22;8858;52.308;20.994;2023-09-12T03:47:14;18.80;99.90
17483;DHT22;8858;52.308;20.994;2023-09-12T03:49:42;18.70;99.90
17483;DHT22;8858;52.308;20.994;2023-09-12T03:52:11;18.70;99.90
17483;DHT22;8858;52.308;20.994;2023-09-12T03:54:39;18.70;99.90
17483;DHT22;8858;52.308;20.994;2023-09-12T03:57:09;18.70;99.90
17483;DHT22;8858;52.308;20.994;2023-09-12T03:59:41;18.70;99.90
17483;DHT22;8858;52.308;20.994;2023-09-12T04:02:09;18.70;99.90
17483;DHT22;8858;52.308;20.994;2023-09-12T04:04:38;18.70;99.90
17483;DHT22;8858;52.308;20.994;2023-09-12T04:07:07;18.70;99.90
17483;DHT22;8858;52.308;20.994;2023-09-12T04:09:36;18.60;99.90
17483;DHT22;8858;52.308;20.994;2023-09-12T04:12:10;18.60;99.90
17483;DHT22;8858;52.308;20.994;2023-09-12T04:14:39;18.60;99.90
17483;DHT22;8858;52.308;20.994;2023-09-12T04:17:08;18.60;99.90
17483;DHT22;8858;52.308;20.994;2023-09-12T04:19:36;18.60;99.90
17483;DHT22;8858;52.308;20.994;2023-09-12T04:22:05;18.60;99.90
17483;DHT22;8858;52.308;20.994;2023-09-12T04:24:37;18.60;99.90
17483;DHT22;8858;52.308;20.994;2023-09-12T04:27:06;18.60;99.90
17483;DHT22;8858;52.308;20.994;2023-09-12T04:29:36;18.60;99.90
17483;DHT22;8858;52.308;20.994;2023-09-12T04:32:05;18.60;99.90
17483;DHT22;8858;52.308;20.994;2023-09-12T04:34:34;18.60;99.90
17483;DHT22;8858;52.308;20.994;2023-09-12T04:37:04;18.60;99.90
17483;DHT22;8858;52.308;20.994;2023-09-12T04:39:34;18.60;99.90
17483;DHT22;8858;52.308;20.994;2023-09-12T04:42:05;18.60;99.90
17483;DHT22;8858;52.308;20.994;2023-09-12T04:44:36;18.60;99.90
17483;DHT22;8858;52.308;20.994;2023-09-12T04:47:05;18.60;99.90
17483;DHT22;8858;52.308;20.994;2023-09-12T04:49:34;18.60;99.90
17483;DHT22;8858;52.308;20.994;2023-09-12T04:52:03;18.60;99.90
17483;DHT22;8858;52.308;20.994;2023-09-12T04:54:31;18.70;99.90
17483;DHT22;8858;52.308;20.994;2023-09-12T04:57:00;18.70;99.90
17483;DHT22;8858;52.308;20.994;2023-09-12T04:59:29;18.70;99.90
17483;DHT22;8858;52.308;20.994;2023-09-12T05:02:02;18.70;99.90
17483;DHT22;8858;52.308;20.994;2023-09-12T05:04:30;18.70;99.90
17483;DHT22;8858;52.308;20.994;2023-09-12T05:07:00;18.80;99.90
17483;DHT22;8858;52.308;20.994;2023-09-12T05:09:28;18.80;99.90
17483;DHT22;8858;52.308;20.994;2023-09-12T05:11:57;18.80;99.90
17483;DHT22;8858;52.308;20.994;2023-09-12T05:14:31;18.90;99.90
17483;DHT22;8858;52.308;20.994;2023-09-12T05:16:59;18.90;99.90
17483;DHT22;8858;52.308;20.994;2023-09-12T05:19:31;18.90;99.90
17483;DHT22;8858;52.308;20.994;2023-09-12T05:22:00;18.90;99.90
17483;DHT22;8858;52.308;20.994;2023-09-12T05:24:28;19.00;99.90
17483;DHT22;8858;52.308;20.994;2023-09-12T05:26:57;19.00;99.90
17483;DHT22;8858;52.308;20.994;2023-09-12T05:29:26;19.00;99.90
17483;DHT22;8858;52.308;20.994;2023-09-12T05:31:55;19.10;99.90
17483;DHT22;8858;52.308;20.994;2023-09-12T05:34:24;19.10;99.90
17483;DHT22;8858;52.308;20.994;2023-09-12T05:36:54;19.20;99.90
17483;DHT22;8858;52.308;20.994;2023-09-12T05:39:24;19.20;99.90
17483;DHT22;8858;52.308;20.994;2023-09-12T05:41:52;19.30;99.90
17483;DHT22;8858;52.308;20.994;2023-09-12T05:44:21;19.30;99.90
17483;DHT22;8858;52.308;20.994;2023-09-12T05:46:53;19.30;99.90
17483;DHT22;8858;52.308;20.994;2023-09-12T05:49:23;19.40;99.90
17483;DHT22;8858;52.308;20.994;2023-09-12T05:52:01;19.50;99.90
17483;DHT22;8858;52.308;20.994;2023-09-12T05:54:30;19.50;99.90
17483;DHT22;8858;52.308;20.994;2023-09-12T05:57:03;19.60;99.90
17483;DHT22;8858;52.308;20.994;2023-09-12T06:02:03;19.70;99.90
17483;DHT22;8858;52.308;20.994;2023-09-12T06:04:33;19.70;99.90
17483;DHT22;8858;52.308;20.994;2023-09-12T06:07:03;19.80;99.90
17483;DHT22;8858;52.308;20.994;2023-09-12T06:09:31;19.90;99.90
17483;DHT22;8858;52.308;20.994;2023-09-12T06:12:01;20.10;99.90
17483;DHT22;8858;52.308;20.994;2023-09-12T06:14:29;20.10;99.90
17483;DHT22;8858;52.308;20.994;2023-09-12T06:16:57;20.20;99.90
17483;DHT22;8858;52.308;20.994;2023-09-12T06:19:26;20.30;99.90
17483;DHT22;8858;52.308;20.994;2023-09-12T06:21:56;20.50;99.90
17483;DHT22;8858;52.308;20.994;2023-09-12T06:24:27;20.70;99.90
17483;DHT22;8858;52.308;20.994;2023-09-12T06:26:56;20.80;99.90
17483;DHT22;8858;52.308;20.994;2023-09-12T06:29:24;21.00;99.90
17483;DHT22;8858;52.308;20.994;2023-09-12T06:31:52;21.20;99.90
17483;DHT22;8858;52.308;20.994;2023-09-12T06:34:26;21.30;99.90
17483;DHT22;8858;52.308;20.994;2023-09-12T06:36:55;21.50;99.90
17483;DHT22;8858;52.308;20.994;2023-09-12T06:39:23;21.70;99.90
17483;DHT22;8858;52.308;20.994;2023-09-12T06:41:55;21.80;99.90
17483;DHT22;8858;52.308;20.994;2023-09-12T06:44:24;22.00;99.90
17483;DHT22;8858;52.308;20.994;2023-09-12T06:46:54;22.20;99.90
17483;DHT22;8858;52.308;20.994;2023-09-12T06:49:24;22.30;99.90
17483;DHT22;8858;52.308;20.994;2023-09-12T06:51:52;22.40;99.90
17483;DHT22;8858;52.308;20.994;2023-09-12T06:54:21;22.60;99.90
17483;DHT22;8858;52.308;20.994;2023-09-12T06:56:50;22.70;99.90
17483;DHT22;8858;52.308;20.994;2023-09-12T06:59:20;22.80;99.90
17483;DHT22;8858;52.308;20.994;2023-09-12T07:01:48;22.90;99.90
17483;DHT22;8858;52.308;20.994;2023-09-12T07:04:17;23.00;99.90
17483;DHT22;8858;52.308;20.994;2023-09-12T07:06:48;23.00;99.90
17483;DHT22;8858;52.308;20.994;2023-09-12T07:09:17;23.00;99.90
17483;DHT22;8858;52.308;20.994;2023-09-12T07:11:45;23.10;99.90
17483;DHT22;8858;52.308;20.994;2023-09-12T07:14:14;23.10;99.90
17483;DHT22;8858;52.308;20.994;2023-09-12T07:16:45;23.20;99.90
17483;DHT22;8858;52.308;20.994;2023-09-12T07:19:17;23.20;99.90
17483;DHT22;8858;52.308;20.994;2023-09-12T07:21:46;23.30;99.90
17483;DHT22;8858;52.308;20.994;2023-09-12T07:24:18;23.30;99.90
17483;DHT22;8858;52.308;20.994;2023-09-12T07:26:46;23.30;99.90
17483;DHT22;8858;52.308;20.994;2023-09-12T07:29:15;23.40;99.90
17483;DHT22;8858;52.308;20.994;2023-09-12T07:31:46;23.40;99.90
17483;DHT22;8858;52.308;20.994;2023-09-12T07:34:15;23.40;99.90
17483;DHT22;8858;52.308;20.994;2023-09-12T07:36:46;23.50;99.90
17483;DHT22;8858;52.308;20.994;2023-09-12T07:39:16;23.50;99.90
17483;DHT22;8858;52.308;20.994;2023-09-12T07:41:44;23.60;99.90
17483;DHT22;8858;52.308;20.994;2023-09-12T07:44:13;23.60;99.90
17483;DHT22;8858;52.308;20.994;2023-09-12T07:46:43;23.70;99.90
17483;DHT22;8858;52.308;20.994;2023-09-12T07:49:14;23.70;99.90
17483;DHT22;8858;52.308;20.994;2023-09-12T07:51:42;23.80;99.90
17483;DHT22;8858;52.308;20.994;2023-09-12T07:54:12;23.80;99.90
17483;DHT22;8858;52.308;20.994;2023-09-12T07:56:40;23.90;99.90
17483;DHT22;8858;52.308;20.994;2023-09-12T07:59:10;23.90;99.90
17483;DHT22;8858;52.308;20.994;2023-09-12T08:01:41;24.00;99.90
17483;DHT22;8858;52.308;20.994;2023-09-12T08:04:10;24.10;99.90
17483;DHT22;8858;52.308;20.994;2023-09-12T08:06:39;24.10;99.90
17483;DHT22;8858;52.308;20.994;2023-09-12T08:09:23;24.20;99.90
17483;DHT22;8858;52.308;20.994;2023-09-12T08:11:52;24.20;99.90
17483;DHT22;8858;52.308;20.994;2023-09-12T08:14:20;24.20;99.90
17483;DHT22;8858;52.308;20.994;2023-09-12T08:16:50;24.20;99.90
17483;DHT22;8858;52.308;20.994;2023-09-12T08:19:18;24.30;99.90
17483;DHT22;8858;52.308;20.994;2023-09-12T08:21:49;24.30;99.90
17483;DHT22;8858;52.308;20.994;2023-09-12T08:24:18;24.40;99.90
17483;DHT22;8858;52.308;20.994;2023-09-12T08:26:48;24.40;99.90
17483;DHT22;8858;52.308;20.994;2023-09-12T08:29:16;24.50;99.90
17483;DHT22;8858;52.308;20.994;2023-09-12T08:31:45;24.50;99.90
17483;DHT22;8858;52.308;20.994;2023-09-12T08:34:15;24.60;99.90
17483;DHT22;8858;52.308;20.994;2023-09-12T08:36:43;24.60;99.90
17483;DHT22;8858;52.308;20.994;2023-09-12T08:39:17;24.60;99.90
17483;DHT22;8858;52.308;20.994;2023-09-12T08:41:47;24.70;99.90
17483;DHT22;8858;52.308;20.994;2023-09-12T08:44:16;24.80;99.90
17483;DHT22;8858;52.308;20.994;2023-09-12T08:46:45;24.80;99.90
17483;DHT22;8858;52.308;20.994;2023-09-12T08:49:15;24.90;99.90
17483;DHT22;8858;52.308;20.994;2023-09-12T08:51:45;24.90;99.90
17483;DHT22;8858;52.308;20.994;2023-09-12T08:54:15;25.00;99.90
17483;DHT22;8858;52.308;20.994;2023-09-12T08:56:44;25.00;99.90
17483;DHT22;8858;52.308;20.994;2023-09-12T08:59:13;25.10;99.90
17483;DHT22;8858;52.308;20.994;2023-09-12T09:01:43;25.10;99.90
17483;DHT22;8858;52.308;20.994;2023-09-12T09:04:13;25.20;99.90
17483;DHT22;8858;52.308;20.994;2023-09-12T09:06:43;25.20;99.90
17483;DHT22;8858;52.308;20.994;2023-09-12T09:09:17;25.20;99.90
17483;DHT22;8858;52.308;20.994;2023-09-12T09:11:47;25.30;99.90
17483;DHT22;8858;52.308;20.994;2023-09-12T09:14:15;25.40;99.90
17483;DHT22;8858;52.308;20.994;2023-09-12T09:16:45;25.40;99.90
17483;DHT22;8858;52.308;20.994;2023-09-12T09:19:13;25.50;99.90
17483;DHT22;8858;52.308;20.994;2023-09-12T09:21:45;25.50;99.90
17483;DHT22;8858;52.308;20.994;2023-09-12T09:24:19;25.50;99.90
17483;DHT22;8858;52.308;20.994;2023-09-12T09:26:52;25.60;99.90
17483;DHT22;8858;52.308;20.994;2023-09-12T09:29:28;25.70;99.90
17483;DHT22;8858;52.308;20.994;2023-09-12T09:32:01;25.70;99.90
17483;DHT22;8858;52.308;20.994;2023-09-12T09:34:32;25.70;99.90
17483;DHT22;8858;52.308;20.994;2023-09-12T09:37:03;25.70;99.90
17483;DHT22;8858;52.308;20.994;2023-09-12T09:39:35;25.80;99.90
17483;DHT22;8858;52.308;20.994;2023-09-12T09:42:10;25.90;99.90
17483;DHT22;8858;52.308;20.994;2023-09-12T09:44:39;25.90;99.90
17483;DHT22;8858;52.308;20.994;2023-09-12T09:47:08;26.00;99.90
17483;DHT22;8858;52.308;20.994;2023-09-12T09:49:37;26.10;99.90
17483;DHT22;8858;52.308;20.994;2023-09-12T09:52:06;26.20;99.90
17483;DHT22;8858;52.308;20.994;2023-09-12T09:54:43;26.30;99.90
17483;DHT22;8858;52.308;20.994;2023-09-12T09:57:12;26.40;99.90
17483;DHT22;8858;52.308;20.994;2023-09-12T09:59:41;26.40;99.90
17483;DHT22;8858;52.308;20.994;2023-09-12T10:02:16;26.50;99.90
17483;DHT22;8858;52.308;20.994;2023-09-12T10:04:49;26.50;99.90
17483;DHT22;8858;52.308;20.994;2023-09-12T10:07:27;26.60;99.90
17483;DHT22;8858;52.308;20.994;2023-09-12T10:10:02;26.70;99.90
17483;DHT22;8858;52.308;20.994;2023-09-12T10:12:31;26.70;99.90
17483;DHT22;8858;52.308;20.994;2023-09-12T10:15:04;26.80;99.90
17483;DHT22;8858;52.308;20.994;2023-09-12T10:17:36;26.80;99.90
17483;DHT22;8858;52.308;20.994;2023-09-12T10:20:10;26.80;99.90
17483;DHT22;8858;52.308;20.994;2023-09-12T10:22:49;26.80;99.90
17483;DHT22;8858;52.308;20.994;2023-09-12T10:25:23;26.80;99.90
17483;DHT22;8858;52.308;20.994;2023-09-12T10:27:52;26.80;99.90
17483;DHT22;8858;52.308;20.994;2023-09-12T10:30:22;26.80;99.90
17483;DHT22;8858;52.308;20.994;2023-09-12T10:32:52;26.80;99.90
17483;DHT22;8858;52.308;20.994;2023-09-12T10:35:22;26.80;99.90
17483;DHT22;8858;52.308;20.994;2023-09-12T10:37:59;26.80;99.90
17483;DHT22;8858;52.308;20.994;2023-09-12T10:40:31;26.80;99.90
17483;DHT22;8858;52.308;20.994;2023-09-12T10:43:00;26.90;99.90
17483;DHT22;8858;52.308;20.994;2023-09-12T10:45:33;26.90;99.90
17483;DHT22;8858;52.308;20.994;2023-09-12T10:48:02;27.00;99.90
17483;DHT22;8858;52.308;20.994;2023-09-12T10:50:32;27.00;99.90
17483;DHT22;8858;52.308;20.994;2023-09-12T10:53:11;27.10;99.90
17483;DHT22;8858;52.308;20.994;2023-09-12T10:55:58;27.20;99.90
17483;DHT22;8858;52.308;20.994;2023-09-12T10:58:28;27.30;99.90
17483;DHT22;8858;52.308;20.994;2023-09-12T11:01:24;27.40;99.90
17483;DHT22;8858;52.308;20.994;2023-09-12T11:03:55;27.40;99.90
17483;DHT22;8858;52.308;20.994;2023-09-12T11:06:29;27.50;99.90
17483;DHT22;8858;52.308;20.994;2023-09-12T11:09:16;27.50;99.90
17483;DHT22;8858;52.308;20.994;2023-09-12T11:11:56;27.60;99.90
17483;DHT22;8858;52.308;20.994;2023-09-12T11:14:24;27.60;99.90
17483;DHT22;8858;52.308;20.994;2023-09-12T11:17:21;27.60;99.90
17483;DHT22;8858;52.308;20.994;2023-09-12T11:19:51;27.70;99.90
17483;DHT22;8858;52.308;20.994;2023-09-12T11:22:24;27.70;99.90
17483;DHT22;8858;52.308;20.994;2023-09-12T11:24:56;27.80;99.90
17483;DHT22;8858;52.308;20.994;2023-09-12T11:27:32;27.80;99.90
17483;DHT22;8858;52.308;20.994;2023-09-12T11:30:06;27.80;99.90
17483;DHT22;8858;52.308;20.994;2023-09-12T11:32:36;27.90;99.90
17483;DHT22;8858;52.308;20.994;2023-09-12T11:35:07;27.90;99.90
17483;DHT22;8858;52.308;20.994;2023-09-12T11:37:36;27.90;99.90
17483;DHT22;8858;52.308;20.994;2023-09-12T11:40:22;28.00;99.90
17483;DHT22;8858;52.308;20.994;2023-09-12T11:42:53;28.10;99.90
17483;DHT22;8858;52.308;20.994;2023-09-12T11:45:28;28.20;99.90
17483;DHT22;8858;52.308;20.994;2023-09-12T11:47:57;28.20;99.90
17483;DHT22;8858;52.308;20.994;2023-09-12T11:50:30;28.30;99.90
17483;DHT22;8858;52.308;20.994;2023-09-12T11:53:02;28.40;99.90
17483;DHT22;8858;52.308;20.994;2023-09-12T11:55:33;28.40;99.90
17483;DHT22;8858;52.308;20.994;2023-09-12T11:58:03;28.50;99.90
17483;DHT22;8858;52.308;20.994;2023-09-12T12:00:33;28.60;99.90
17483;DHT22;8858;52.308;20.994;2023-09-12T12:03:01;28.70;99.90
17483;DHT22;8858;52.308;20.994;2023-09-12T12:05:32;28.80;99.90
17483;DHT22;8858;52.308;20.994;2023-09-12T12:08:07;28.90;99.90
17483;DHT22;8858;52.308;20.994;2023-09-12T12:10:57;28.90;99.90
17483;DHT22;8858;52.308;20.994;2023-09-12T12:13:28;29.10;99.90
17483;DHT22;8858;52.308;20.994;2023-09-12T12:15:57;29.10;99.90
17483;DHT22;8858;52.308;20.994;2023-09-12T12:18:29;29.20;99.90
17483;DHT22;8858;52.308;20.994;2023-09-12T12:20:58;29.30;99.90
17483;DHT22;8858;52.308;20.994;2023-09-12T12:23:30;29.30;99.90
17483;DHT22;8858;52.308;20.994;2023-09-12T12:26:03;29.40;99.90
17483;DHT22;8858;52.308;20.994;2023-09-12T12:28:33;29.30;99.90
17483;DHT22;8858;52.308;20.994;2023-09-12T12:31:03;29.30;99.90
17483;DHT22;8858;52.308;20.994;2023-09-12T12:33:32;29.30;99.90
17483;DHT22;8858;52.308;20.994;2023-09-12T12:36:25;29.20;99.90
17483;DHT22;8858;52.308;20.994;2023-09-12T12:38:54;29.20;99.90
17483;DHT22;8858;52.308;20.994;2023-09-12T12:41:27;29.20;99.90
17483;DHT22;8858;52.308;20.994;2023-09-12T12:44:14;29.20;99.90
17483;DHT22;8858;52.308;20.994;2023-09-12T12:46:48;29.30;99.90
17483;DHT22;8858;52.308;20.994;2023-09-12T12:49:19;29.30;99.90
17483;DHT22;8858;52.308;20.994;2023-09-12T12:51:48;29.50;99.90
17483;DHT22;8858;52.308;20.994;2023-09-12T12:54:16;29.70;99.90
17483;DHT22;8858;52.308;20.994;2023-09-12T12:56:45;29.90;99.90
17483;DHT22;8858;52.308;20.994;2023-09-12T12:59:15;30.20;99.90
17483;DHT22;8858;52.308;20.994;2023-09-12T13:01:47;30.50;99.90
17483;DHT22;8858;52.308;20.994;2023-09-12T13:04:18;30.80;99.90
17483;DHT22;8858;52.308;20.994;2023-09-12T13:06:47;31.00;99.90
17483;DHT22;8858;52.308;20.994;2023-09-12T13:09:15;31.30;99.90
17483;DHT22;8858;52.308;20.994;2023-09-12T13:11:44;31.50;99.90
17483;DHT22;8858;52.308;20.994;2023-09-12T13:14:16;31.70;99.90
17483;DHT22;8858;52.308;20.994;2023-09-12T13:16:46;32.00;99.90
17483;DHT22;8858;52.308;20.994;2023-09-12T13:19:14;32.10;99.90
17483;DHT22;8858;52.308;20.994;2023-09-12T13:21:42;32.20;99.90
17483;DHT22;8858;52.308;20.994;2023-09-12T13:24:11;32.40;99.90
17483;DHT22;8858;52.308;20.994;2023-09-12T13:26:40;32.50;99.90
17483;DHT22;8858;52.308;20.994;2023-09-12T13:29:08;32.60;99.90
17483;DHT22;8858;52.308;20.994;2023-09-12T13:31:42;32.80;99.90
17483;DHT22;8858;52.308;20.994;2023-09-12T13:34:11;32.90;99.90
17483;DHT22;8858;52.308;20.994;2023-09-12T13:36:39;33.10;99.90
17483;DHT22;8858;52.308;20.994;2023-09-12T13:39:11;33.20;99.90
17483;DHT22;8858;52.308;20.994;2023-09-12T13:41:40;33.30;99.90
17483;DHT22;8858;52.308;20.994;2023-09-12T13:44:09;33.50;99.90
17483;DHT22;8858;52.308;20.994;2023-09-12T13:46:38;33.60;99.90
17483;DHT22;8858;52.308;20.994;2023-09-12T13:49:07;33.70;99.90
17483;DHT22;8858;52.308;20.994;2023-09-12T13:51:38;33.80;99.90
17483;DHT22;8858;52.308;20.994;2023-09-12T13:54:07;33.90;99.90
17483;DHT22;8858;52.308;20.994;2023-09-12T13:56:41;34.00;99.90
17483;DHT22;8858;52.308;20.994;2023-09-12T13:59:09;34.10;99.90
17483;DHT22;8858;52.308;20.994;2023-09-12T14:01:38;34.20;99.90
17483;DHT22;8858;52.308;20.994;2023-09-12T14:04:09;34.20;99.90
17483;DHT22;8858;52.308;20.994;2023-09-12T14:06:38;34.20;99.20
17483;DHT22;8858;52.308;20.994;2023-09-12T14:09:07;34.20;98.70
17483;DHT22;8858;52.308;20.994;2023-09-12T14:11:37;34.20;99.00
17483;DHT22;8858;52.308;20.994;2023-09-12T14:14:09;34.30;99.10
17483;DHT22;8858;52.308;20.994;2023-09-12T14:16:43;34.20;98.10
17483;DHT22;8858;52.308;20.994;2023-09-12T14:19:16;34.20;98.00
17483;DHT22;8858;52.308;20.994;2023-09-12T14:21:46;34.10;97.80
17483;DHT22;8858;52.308;20.994;2023-09-12T14:24:18;33.90;98.00
17483;DHT22;8858;52.308;20.994;2023-09-12T14:27:12;33.90;98.80
17483;DHT22;8858;52.308;20.994;2023-09-12T14:29:53;33.70;98.50
17483;DHT22;8858;52.308;20.994;2023-09-12T14:32:21;33.60;98.30
17483;DHT22;8858;52.308;20.994;2023-09-12T14:34:50;33.40;98.60
17483;DHT22;8858;52.308;20.994;2023-09-12T14:37:19;33.40;98.20
17483;DHT22;8858;52.308;20.994;2023-09-12T14:39:52;33.20;99.00
17483;DHT22;8858;52.308;20.994;2023-09-12T14:42:22;33.20;99.60
17483;DHT22;8858;52.308;20.994;2023-09-12T14:44:50;33.10;99.60
17483;DHT22;8858;52.308;20.994;2023-09-12T14:47:19;33.00;98.20
17483;DHT22;8858;52.308;20.994;2023-09-12T14:49:47;32.90;98.70
17483;DHT22;8858;52.308;20.994;2023-09-12T14:52:22;32.80;99.00
17483;DHT22;8858;52.308;20.994;2023-09-12T14:54:54;32.80;99.60
17483;DHT22;8858;52.308;20.994;2023-09-12T14:57:29;32.70;98.90
17483;DHT22;8858;52.308;20.994;2023-09-12T14:59:58;32.60;99.10
17483;DHT22;8858;52.308;20.994;2023-09-12T15:02:28;32.60;98.50
17483;DHT22;8858;52.308;20.994;2023-09-12T15:05:03;32.50;98.90
17483;DHT22;8858;52.308;20.994;2023-09-12T15:07:32;32.40;98.30
17483;DHT22;8858;52.308;20.994;2023-09-12T15:10:02;32.30;99.20
17483;DHT22;8858;52.308;20.994;2023-09-12T15:12:31;32.20;99.10
17483;DHT22;8858;52.308;20.994;2023-09-12T15:14:59;32.10;99.60
17483;DHT22;8858;52.308;20.994;2023-09-12T15:17:29;32.00;98.90
17483;DHT22;8858;52.308;20.994;2023-09-12T15:19:57;31.90;99.30
17483;DHT22;8858;52.308;20.994;2023-09-12T15:22:26;31.80;99.90
17483;DHT22;8858;52.308;20.994;2023-09-12T15:24:55;31.70;99.90
17483;DHT22;8858;52.308;20.994;2023-09-12T15:27:24;31.60;99.90
17483;DHT22;8858;52.308;20.994;2023-09-12T15:29:54;31.60;99.90
17483;DHT22;8858;52.308;20.994;2023-09-12T15:32:23;31.40;99.90
17483;DHT22;8858;52.308;20.994;2023-09-12T15:34:51;31.30;99.90
17483;DHT22;8858;52.308;20.994;2023-09-12T15:37:19;31.20;99.90
17483;DHT22;8858;52.308;20.994;2023-09-12T15:39:49;31.10;99.90
17483;DHT22;8858;52.308;20.994;2023-09-12T15:42:19;31.00;99.90
17483;DHT22;8858;52.308;20.994;2023-09-12T15:45:03;31.00;99.90
17483;DHT22;8858;52.308;20.994;2023-09-12T15:47:34;30.90;99.90
17483;DHT22;8858;52.308;20.994;2023-09-12T15:50:04;30.90;99.90
17483;DHT22;8858;52.308;20.994;2023-09-12T15:52:32;30.90;99.90
17483;DHT22;8858;52.308;20.994;2023-09-12T15:55:04;30.80;99.90